Erzurum, Turkey
Current Conditions -  °F | °C
As of 1:05 PM on Saturday 01 Nov 2014 (Local Time) from LTCE Reporting Station
Rain Showers Rain Showers  
Wind Chill: 40°   Ceiling: 7000
Heat Index: 46°   Visibility: 6mi
Dew Point: 36°   Wind: 14mph
Humidity: 66%   Direction: 250°WSW
Pressure: 29.85"   Gusts: NA
Location:  39.91°N, 41.29°E
Report Text: LTCE 011005Z 25012KT 9999 -SHRA SCT025 BKN070 08/02 Q1011 NOSIGRMK RWY08R 24011KT RWY26R 25013KT RWY08L 25012KT
Loading
Personal Weather Stations






























Interactive Weather Map
Tropical Storm Tracking
New forecast layout! Learn more

10-Day Weather Forecast

Advertisements
Track Severe Weather on mobile